Time;durP1;ratioP1;P1;durP2;ratioP2;P2;SDS_P1;SDS_P2;PMS_P1;PMS_P2;Temp;Humidity;BMP_temperature;BMP_pressure;BME280_temperature;BME280_humidity;BME280_pressure;Samples;Min_cycle;Max_cycle;Signal;HPM_P1;HPM_P2
2022/09/21 00:01:02;;;;;;;;;3.00;3.00;;;;;8.92;77.69;100850.81;5032847;28;8921;-63
2022/09/21 00:03:30;;;;;;;;;1.00;1.00;;;;;8.92;77.46;100851.69;5032398;28;8972;-62
2022/09/21 00:05:58;;;;;;;;;1.00;0.50;;;;;8.94;77.30;100846.25;5032380;28;8848;-63
2022/09/21 00:08:26;;;;;;;;;2.50;2.00;;;;;8.92;76.87;100846.38;5032813;28;8934;-63
2022/09/21 00:10:53;;;;;;;;;3.00;3.00;;;;;8.89;77.32;100849.19;5032993;28;8869;-61
2022/09/21 00:13:21;;;;;;;;;2.00;2.00;;;;;8.86;77.42;100846.72;5033282;28;8813;-62
2022/09/21 00:15:49;;;;;;;;;3.00;2.50;;;;;8.82;77.41;100850.47;5032734;28;8833;-62
2022/09/21 00:18:17;;;;;;;;;3.50;2.50;;;;;8.79;77.47;100844.50;5033179;28;8848;-63
2022/09/21 00:20:45;;;;;;;;;3.00;3.00;;;;;8.76;77.58;100850.88;5032168;28;8841;-64
2022/09/21 00:23:12;;;;;;;;;2.50;1.00;;;;;8.73;77.64;100851.03;5031180;28;8925;-63
2022/09/21 00:25:40;;;;;;;;;3.75;3.00;;;;;8.70;77.84;100853.88;5032642;28;8828;-63
2022/09/21 00:28:08;;;;;;;;;1.00;1.00;;;;;8.67;77.79;100858.50;5032501;28;8833;-62
2022/09/21 00:30:35;;;;;;;;;1.00;1.00;;;;;8.62;77.84;100853.44;5032754;28;8845;-62
2022/09/21 00:33:03;;;;;;;;;3.00;3.00;;;;;8.58;77.36;100851.91;5032771;28;8821;-62
2022/09/21 00:35:32;;;;;;;;;0.75;0.75;;;;;8.56;77.68;100859.09;5032610;28;8825;-63
2022/09/21 00:37:59;;;;;;;;;2.00;2.00;;;;;8.52;77.59;100852.25;5032532;28;8825;-64
2022/09/21 00:40:27;;;;;;;;;3.00;3.00;;;;;8.50;77.84;100848.00;5032838;28;8857;-61
2022/09/21 00:42:55;;;;;;;;;3.75;3.75;;;;;8.48;77.88;100865.78;5032205;28;8825;-61
2022/09/21 00:45:22;;;;;;;;;1.00;1.00;;;;;8.47;77.95;100858.75;5032987;28;8843;-62
2022/09/21 00:47:50;;;;;;;;;1.00;1.00;;;;;8.43;78.03;100863.38;5032165;28;8971;-63
2022/09/21 00:50:18;;;;;;;;;3.75;3.75;;;;;8.40;78.05;100868.88;5032379;28;8833;-61
2022/09/21 00:52:46;;;;;;;;;2.00;2.00;;;;;8.37;77.81;100869.03;5032472;28;8837;-60
2022/09/21 00:55:13;;;;;;;;;3.00;2.50;;;;;8.34;78.06;100865.69;5032175;28;8905;-63
2022/09/21 00:57:41;;;;;;;;;3.00;3.00;;;;;8.33;78.20;100866.63;5031844;28;9505;-60
2022/09/21 01:00:09;;;;;;;;;3.00;3.00;;;;;8.32;78.15;100873.75;5032580;28;8825;-62
2022/09/21 01:02:37;;;;;;;;;1.75;0.75;;;;;8.30;78.62;100878.25;5032857;28;8909;-62
2022/09/21 01:05:04;;;;;;;;;1.00;1.00;;;;;8.29;78.26;100873.91;5032261;28;8825;-60
2022/09/21 01:07:32;;;;;;;;;0.75;0.75;;;;;8.26;78.49;100874.09;5032002;28;8837;-62
2022/09/21 01:10:01;;;;;;;;;1.00;1.00;;;;;8.24;78.08;100870.69;5032881;28;8821;-60
2022/09/21 01:12:28;;;;;;;;;3.00;1.00;;;;;8.22;78.14;100877.84;5032113;28;9542;-60
2022/09/21 01:14:56;;;;;;;;;3.25;3.25;;;;;8.18;78.44;100872.75;5032276;28;8841;-61
2022/09/21 01:17:24;;;;;;;;;3.00;3.00;;;;;8.15;78.03;100873.78;5035492;28;8928;-60
2022/09/21 01:19:52;;;;;;;;;3.00;3.00;;;;;8.11;78.60;100880.19;5035737;28;8839;-60
2022/09/21 01:22:19;;;;;;;;;1.50;1.50;;;;;8.06;78.22;100868.97;5036025;28;8825;-61
2022/09/21 01:24:47;;;;;;;;;1.00;1.00;;;;;8.03;78.21;100871.81;5035688;28;9604;-64
2022/09/21 01:27:15;;;;;;;;;1.00;1.00;;;;;8.00;78.74;100876.41;5035508;28;8924;-62
2022/09/21 01:29:43;;;;;;;;;2.50;1.50;;;;;7.97;78.67;100873.91;5035301;28;8897;-63
2022/09/21 01:32:11;;;;;;;;;1.00;1.00;;;;;7.95;78.64;100881.09;5035266;28;8833;-63
2022/09/21 01:34:39;;;;;;;;;3.00;3.00;;;;;7.90;78.72;100878.72;5035455;28;8841;-61
2022/09/21 01:37:06;;;;;;;;;3.00;3.00;;;;;7.87;78.71;100889.50;5035466;28;8902;-63
2022/09/21 01:39:34;;;;;;;;;3.00;3.00;;;;;7.85;78.46;100886.03;5035110;28;8841;-63
2022/09/21 01:42:02;;;;;;;;;1.00;1.00;;;;;7.84;79.00;100886.16;5035287;28;8857;-63
2022/09/21 01:44:32;;;;;;;;;2.50;2.00;;;;;7.81;78.54;100881.84;5035216;28;8841;-62
2022/09/21 01:47:00;;;;;;;;;2.00;1.00;;;;;7.78;78.80;100892.63;5035511;28;8833;-62
2022/09/21 01:49:27;;;;;;;;;2.50;2.50;;;;;7.75;78.39;100884.81;5034779;28;8840;-63
2022/09/21 01:51:56;;;;;;;;;3.00;3.00;;;;;7.73;79.31;100892.00;5034681;28;8848;-61
2022/09/21 01:54:24;;;;;;;;;1.00;1.00;;;;;7.72;78.93;100894.72;5035038;28;8820;-63
2022/09/21 01:56:51;;;;;;;;;3.00;3.00;;;;;7.69;78.91;100894.91;5035162;28;8849;-64
2022/09/21 01:59:20;;;;;;;;;2.50;1.50;;;;;7.67;79.20;100895.94;5035181;28;8825;-63
2022/09/21 02:01:48;;;;;;;;;3.50;1.50;;;;;7.61;79.04;100890.94;5034764;28;8825;-62
2022/09/21 02:04:16;;;;;;;;;1.00;1.00;;;;;7.58;79.22;100891.09;5035170;28;8817;-63
2022/09/21 02:06:43;;;;;;;;;1.00;0.00;;;;;7.53;79.02;100893.13;5035061;28;8917;-62
2022/09/21 02:09:11;;;;;;;;;1.00;1.00;;;;;7.49;79.11;100892.44;5034897;28;8833;-63
2022/09/21 02:11:41;;;;;;;;;2.00;1.00;;;;;7.46;79.61;100887.31;5034616;28;8861;-61
2022/09/21 02:14:09;;;;;;;;;1.00;1.00;;;;;7.44;79.11;100891.81;5034945;28;8913;-63
2022/09/21 02:16:38;;;;;;;;;3.00;3.00;;;;;7.41;79.10;100888.44;5034961;28;9478;-63
2022/09/21 02:19:08;;;;;;;;;1.50;1.00;;;;;7.35;79.78;100896.75;5034861;28;8825;-64
2022/09/21 02:21:35;;;;;;;;;1.00;1.00;;;;;7.32;79.20;100899.53;5034588;28;8917;-62
2022/09/21 02:24:03;;;;;;;;;1.00;1.00;;;;;7.31;79.33;100897.81;5034466;28;8833;-63
2022/09/21 02:26:31;;;;;;;;;1.00;1.00;;;;;7.30;79.27;100901.41;5034013;28;8825;-63
2022/09/21 02:29:00;;;;;;;;;1.50;1.50;;;;;7.29;79.23;100899.69;5034064;28;8817;-63
2022/09/21 02:31:27;;;;;;;;;1.50;1.00;;;;;7.26;79.13;100895.41;5035151;28;8817;-62
2022/09/21 02:33:55;;;;;;;;;0.00;0.00;;;;;7.23;79.20;100894.72;5034286;28;8837;-63
2022/09/21 02:36:24;;;;;;;;;1.00;1.00;;;;;7.21;79.30;100899.22;5034537;28;8821;-63
2022/09/21 02:38:53;;;;;;;;;1.00;1.00;;;;;7.18;79.42;100891.41;5034395;28;8826;-61
2022/09/21 02:41:22;;;;;;;;;2.50;1.00;;;;;7.16;79.13;100896.81;5034163;28;8929;-62
2022/09/21 02:43:50;;;;;;;;;0.00;0.00;;;;;7.13;79.54;100893.47;5034312;28;8817;-63
2022/09/21 02:46:18;;;;;;;;;1.50;1.50;;;;;7.11;79.76;100885.59;5034436;28;8825;-61
2022/09/21 02:48:46;;;;;;;;;1.80;1.80;;;;;7.10;79.51;100888.31;5034065;28;8825;-63
2022/09/21 02:51:14;;;;;;;;;1.00;1.00;;;;;7.07;79.76;100886.69;5034427;28;8817;-61
2022/09/21 02:53:41;;;;;;;;;1.50;1.50;;;;;7.06;79.03;100886.75;5034350;28;8913;-61
2022/09/21 02:56:10;;;;;;;;;2.50;1.00;;;;;7.05;79.18;100882.41;5034013;28;9515;-64
2022/09/21 02:58:37;;;;;;;;;1.00;1.00;;;;;7.03;79.40;100882.47;5033827;28;8821;-63
2022/09/21 03:01:06;;;;;;;;;2.60;1.00;;;;;7.01;79.43;100888.78;5034237;28;9482;-63
2022/09/21 03:03:34;;;;;;;;;2.00;1.50;;;;;7.00;79.51;100892.34;5033839;28;8829;-63
2022/09/21 03:06:01;;;;;;;;;2.50;2.50;;;;;7.01;79.65;100892.28;5033826;28;8809;-61
2022/09/21 03:08:29;;;;;;;;;3.00;3.00;;;;;7.03;79.29;100892.19;5033761;28;8921;-61
2022/09/21 03:10:57;;;;;;;;;1.00;1.00;;;;;7.01;79.70;100888.78;5033609;28;8861;-61
2022/09/21 03:13:25;;;;;;;;;3.00;3.00;;;;;7.02;79.05;100887.84;5033995;28;8916;-61
2022/09/21 03:15:53;;;;;;;;;1.00;1.00;;;;;7.00;78.94;100882.63;5033647;28;8805;-63
2022/09/21 03:18:20;;;;;;;;;1.00;1.00;;;;;6.99;79.15;100880.06;5033080;28;8825;-62
2022/09/21 03:20:48;;;;;;;;;1.80;1.80;;;;;6.97;79.20;100888.06;5033197;28;8813;-61
2022/09/21 03:23:16;;;;;;;;;1.80;1.80;;;;;6.94;79.44;100888.22;5033265;28;8829;-62
2022/09/21 03:25:44;;;;;;;;;3.20;2.20;;;;;6.92;79.56;100891.88;5032152;28;8848;-63
2022/09/21 03:28:12;;;;;;;;;3.50;2.00;;;;;6.89;79.29;100889.41;5033037;28;9495;-62
2022/09/21 03:30:39;;;;;;;;;3.20;3.20;;;;;6.84;79.78;100888.75;5032993;28;8809;-61
2022/09/21 03:33:07;;;;;;;;;1.00;1.00;;;;;6.82;79.72;100893.28;5033183;28;8872;-63
2022/09/21 03:35:35;;;;;;;;;3.00;3.00;;;;;6.80;79.16;100890.69;5033509;28;8837;-62
2022/09/21 03:38:02;;;;;;;;;3.00;1.00;;;;;6.78;79.83;100894.34;5032902;28;8898;-62
2022/09/21 03:40:30;;;;;;;;;2.50;1.50;;;;;6.74;79.82;100898.09;5033006;28;8844;-63
2022/09/21 03:42:58;;;;;;;;;1.00;1.00;;;;;6.70;79.48;100904.44;5033603;28;9490;-61
2022/09/21 03:45:26;;;;;;;;;0.00;0.00;;;;;6.66;79.64;100902.91;5033255;28;8825;-62
2022/09/21 03:47:54;;;;;;;;;1.00;1.00;;;;;6.62;79.93;100901.31;5033009;28;8903;-63
2022/09/21 03:50:21;;;;;;;;;3.00;1.00;;;;;6.58;79.92;100894.44;5033352;28;8913;-63
2022/09/21 03:52:49;;;;;;;;;3.00;1.40;;;;;6.55;79.73;100900.78;5033055;28;8879;-61
2022/09/21 03:55:17;;;;;;;;;0.20;0.20;;;;;6.52;79.88;100900.91;5033367;28;8957;-63
2022/09/21 03:57:44;;;;;;;;;1.00;1.00;;;;;6.50;80.07;100899.25;5032982;28;8816;-61
2022/09/21 04:00:12;;;;;;;;;2.20;1.00;;;;;6.46;80.15;100895.06;5033121;28;8841;-63
2022/09/21 04:02:40;;;;;;;;;1.00;1.00;;;;;6.43;79.69;100896.06;5033271;28;8809;-63
2022/09/21 04:05:07;;;;;;;;;1.00;0.60;;;;;6.40;79.92;100895.34;5032714;28;8828;-61
2022/09/21 04:07:35;;;;;;;;;0.80;0.80;;;;;6.38;79.91;100899.84;5032627;28;8909;-61
2022/09/21 04:10:03;;;;;;;;;1.20;0.80;;;;;6.34;80.08;100898.25;5032418;28;8905;-61
2022/09/21 04:12:31;;;;;;;;;3.00;1.00;;;;;6.32;79.80;100892.19;5032953;28;9558;-60
2022/09/21 04:14:59;;;;;;;;;1.00;1.00;;;;;6.32;79.68;100902.78;5033067;28;8829;-62
2022/09/21 04:17:26;;;;;;;;;1.00;1.00;;;;;6.32;79.70;100897.50;5032942;28;9583;-60
2022/09/21 04:19:54;;;;;;;;;2.20;1.00;;;;;6.32;80.44;100900.13;5032706;28;8817;-62
2022/09/21 04:22:23;;;;;;;;;0.00;0.00;;;;;6.33;79.87;100899.19;5032398;28;8837;-62
2022/09/21 04:24:51;;;;;;;;;1.40;1.40;;;;;6.32;80.04;100901.00;5032541;28;8813;-61
2022/09/21 04:27:19;;;;;;;;;0.60;0.60;;;;;6.32;79.75;100905.44;5033087;28;8829;-63
2022/09/21 04:29:48;;;;;;;;;1.80;1.00;;;;;6.33;79.85;100899.19;5032655;28;8825;-61
2022/09/21 04:32:16;;;;;;;;;0.20;0.20;;;;;6.30;80.04;100894.91;5032461;28;8833;-61
2022/09/21 04:34:43;;;;;;;;;1.00;1.00;;;;;6.27;79.56;100894.19;5032483;28;8837;-61
2022/09/21 04:37:11;;;;;;;;;1.00;0.20;;;;;6.25;79.76;100894.28;5032361;28;8840;-63
2022/09/21 04:39:39;;;;;;;;;0.60;0.60;;;;;6.24;79.63;100897.00;5032209;28;8817;-61
2022/09/21 04:42:07;;;;;;;;;1.40;1.00;;;;;6.24;79.91;100904.94;5032550;28;8853;-62
2022/09/21 04:44:34;;;;;;;;;0.60;0.60;;;;;6.24;80.09;100900.50;5032151;28;8840;-61
2022/09/21 04:47:02;;;;;;;;;2.60;2.60;;;;;6.23;79.72;100904.06;5032407;28;8909;-61
2022/09/21 04:49:29;;;;;;;;;0.60;0.40;;;;;6.24;79.48;100900.50;5031858;28;8832;-61
2022/09/21 04:51:58;;;;;;;;;2.20;1.00;;;;;6.24;80.11;100902.28;5035032;28;9596;-60
2022/09/21 04:54:25;;;;;;;;;1.00;1.00;;;;;6.23;79.64;100912.00;5035740;28;8817;-61
2022/09/21 04:56:53;;;;;;;;;0.60;0.60;;;;;6.22;80.05;100912.09;5035107;28;8905;-61
2022/09/21 04:59:21;;;;;;;;;1.40;1.00;;;;;6.19;80.31;100913.06;5035687;28;8952;-62
2022/09/21 05:01:48;;;;;;;;;3.00;3.00;;;;;6.18;79.96;100914.00;5034884;28;8873;-61
2022/09/21 05:04:16;;;;;;;;;1.80;1.00;;;;;6.19;79.64;100914.84;5035139;28;9660;-61
2022/09/21 05:06:44;;;;;;;;;1.00;1.00;;;;;6.17;79.82;100919.34;5034465;28;8832;-61
2022/09/21 05:11:56;;;;;;;;;3.00;1.00;;;;;6.15;80.15;100913.28;5034816;28;8909;-60
2022/09/21 05:14:24;;;;;;;;;1.00;1.00;;;;;6.16;80.04;100920.28;5035145;28;8873;-60
2022/09/21 05:16:52;;;;;;;;;2.60;2.20;;;;;6.15;79.51;100919.41;5034512;28;8909;-60
2022/09/21 05:19:20;;;;;;;;;0.00;0.00;;;;;6.15;79.73;100923.88;5034705;28;8829;-60
2022/09/21 05:21:47;;;;;;;;;1.80;1.80;;;;;6.15;79.86;100923.88;5034858;28;8890;-61
2022/09/21 05:24:15;;;;;;;;;3.40;3.40;;;;;6.13;79.84;100929.22;5033393;28;8821;-61
2022/09/21 05:26:43;;;;;;;;;3.40;3.00;;;;;6.12;80.09;100937.22;5034310;28;8837;-60
2022/09/21 05:29:11;;;;;;;;;1.00;1.00;;;;;6.09;79.24;100938.22;5033495;28;8845;-59
2022/09/21 05:31:38;;;;;;;;;1.00;1.00;;;;;6.07;79.78;100937.41;5034354;28;8925;-60
2022/09/21 05:34:07;;;;;;;;;1.00;1.00;;;;;6.06;79.59;100937.50;5033858;28;8835;-60
2022/09/21 05:36:34;;;;;;;;;1.00;1.00;;;;;6.06;79.80;100943.63;5033765;28;9471;-60
2022/09/21 05:39:02;;;;;;;;;1.00;1.00;;;;;6.08;80.15;100948.88;5032751;28;8917;-61
2022/09/21 05:41:30;;;;;;;;;1.00;1.00;;;;;6.10;79.75;100947.00;5032297;28;8889;-60
2022/09/21 05:43:58;;;;;;;;;1.00;1.00;;;;;6.11;80.06;100941.66;5032288;28;8840;-59
2022/09/21 05:46:25;;;;;;;;;1.40;1.00;;;;;6.14;80.14;100951.25;5031946;28;8837;-59
2022/09/21 05:48:53;;;;;;;;;1.00;1.00;;;;;6.17;79.75;100951.09;5032141;28;8833;-60
2022/09/21 05:51:21;;;;;;;;;1.00;1.00;;;;;6.20;79.38;100950.94;5029546;28;9537;-60
2022/09/21 05:53:49;;;;;;;;;1.00;1.00;;;;;6.25;79.22;100951.59;5031161;28;8937;-60
2022/09/21 05:56:17;;;;;;;;;1.40;1.40;;;;;6.31;79.67;100953.97;5030328;28;9226;-60
2022/09/21 05:58:45;;;;;;;;;0.60;0.60;;;;;6.38;79.33;100952.75;5030426;28;8866;-60
2022/09/21 06:01:12;;;;;;;;;6.00;3.40;;;;;6.46;78.76;100950.59;5029393;28;9201;-60
2022/09/21 06:03:41;;;;;;;;;1.80;1.80;;;;;6.52;78.77;100952.97;5029659;28;8821;-60
2022/09/21 06:06:08;;;;;;;;;2.60;1.00;;;;;6.57;78.60;100951.81;5030677;28;9634;-60
2022/09/21 06:08:36;;;;;;;;;3.20;1.00;;;;;6.65;78.32;100954.97;5029904;28;8837;-62
2022/09/21 06:11:03;;;;;;;;;3.00;2.60;;;;;6.72;77.91;100959.03;5028984;28;8936;-60
2022/09/21 06:13:31;;;;;;;;;0.20;0.20;;;;;6.79;78.82;100962.22;5029702;28;8841;-60
2022/09/21 06:15:59;;;;;;;;;1.50;1.00;;;;;6.88;78.05;100961.78;5031294;28;8861;-61
2022/09/21 06:18:27;;;;;;;;;2.20;2.20;;;;;6.96;77.54;100960.50;5031431;28;8840;-60
2022/09/21 06:20:55;;;;;;;;;3.00;3.00;;;;;7.06;77.71;100966.19;5031150;28;8821;-60
2022/09/21 06:23:23;;;;;;;;;3.00;2.20;;;;;7.13;77.69;100960.50;5032529;28;8829;-61
2022/09/21 06:25:50;;;;;;;;;4.00;4.00;;;;;7.23;77.15;100959.16;5032080;28;8846;-60
2022/09/21 06:28:24;;;;;;;;;3.60;3.60;;;;;7.34;77.58;100961.25;5032045;28;8829;-61
2022/09/21 06:30:52;;;;;;;;;6.20;5.60;;;;;7.47;76.88;100959.69;5032283;28;9495;-61
2022/09/21 06:33:22;;;;;;;;;3.20;3.20;;;;;7.59;76.95;100957.25;5031750;28;8828;-61
2022/09/21 06:35:49;;;;;;;;;7.00;7.00;;;;;7.75;76.77;100961.72;5031129;28;8893;-61
2022/09/21 06:38:17;;;;;;;;;3.60;3.60;;;;;7.88;76.69;100954.84;5030693;28;8898;-61
2022/09/21 06:40:45;;;;;;;;;6.50;5.50;;;;;7.99;76.25;100956.94;5030455;28;8841;-61
2022/09/21 06:43:13;;;;;;;;;5.25;4.75;;;;;8.09;76.09;100959.00;5030912;28;8944;-61
2022/09/21 06:45:40;;;;;;;;;3.50;3.50;;;;;8.17;76.27;100959.47;5031668;28;8926;-62
2022/09/21 06:48:08;;;;;;;;;4.00;3.75;;;;;8.24;76.76;100957.34;5030486;28;8843;-61
2022/09/21 06:50:35;;;;;;;;;5.50;4.50;;;;;8.32;76.33;100955.16;5030965;28;8837;-61
2022/09/21 06:53:03;;;;;;;;;5.00;4.00;;;;;8.38;75.89;100960.97;5031398;28;8837;-61
2022/09/21 06:55:31;;;;;;;;;3.00;3.00;;;;;8.40;75.86;100953.81;5031245;28;8825;-61
2022/09/21 06:57:59;;;;;;;;;3.00;3.00;;;;;8.46;75.98;100952.59;5030781;28;8845;-61
2022/09/21 07:00:26;;;;;;;;;3.00;3.00;;;;;8.51;75.94;100954.06;5029991;28;8833;-61
2022/09/21 07:02:54;;;;;;;;;1.00;1.00;;;;;8.55;75.36;100947.66;5029428;28;8837;-61
2022/09/21 07:05:22;;;;;;;;;3.50;3.50;;;;;8.61;75.74;100947.31;5029722;28;8917;-60
2022/09/21 07:07:50;;;;;;;;;2.00;1.50;;;;;8.67;75.55;100954.91;5029887;28;8845;-60
2022/09/21 07:10:20;;;;;;;;;3.00;3.00;;;;;8.75;75.63;100950.03;5029401;28;9062;-60
2022/09/21 07:12:50;;;;;;;;;3.25;3.00;;;;;8.81;75.91;100944.38;5029469;28;8848;-62
2022/09/21 07:15:18;;;;;;;;;3.25;2.50;;;;;8.91;75.43;100950.91;5030724;28;8845;-61
2022/09/21 07:17:46;;;;;;;;;3.25;3.25;;;;;9.01;74.78;100946.78;5030863;28;8820;-63
2022/09/21 07:20:18;;;;;;;;;4.00;3.50;;;;;9.12;74.99;100949.66;5030952;28;8837;-61
2022/09/21 07:22:46;;;;;;;;;1.00;1.00;;;;;9.21;74.72;100954.47;5030974;28;8943;-61
2022/09/21 07:25:14;;;;;;;;;4.50;4.00;;;;;9.34;74.58;100952.78;5031438;28;8824;-61
2022/09/21 07:27:41;;;;;;;;;3.75;3.75;;;;;9.47;74.94;100956.44;5031745;28;8840;-61
2022/09/21 07:30:09;;;;;;;;;4.50;4.00;;;;;9.57;74.52;100952.28;5030176;28;8836;-60
2022/09/21 07:32:37;;;;;;;;;5.00;3.75;;;;;9.69;74.27;100951.56;5031568;28;9498;-61
2022/09/21 07:35:05;;;;;;;;;6.50;4.00;;;;;9.84;73.83;100949.78;5031340;28;8893;-61
2022/09/21 07:37:32;;;;;;;;;4.00;4.00;;;;;9.98;73.29;100957.78;5030432;28;8852;-60
2022/09/21 07:40:02;;;;;;;;;4.00;3.25;;;;;10.13;73.93;100951.53;5030751;28;8849;-61
2022/09/21 07:42:30;;;;;;;;;6.00;5.00;;;;;10.29;73.37;100949.66;5031720;28;8854;-61
2022/09/21 07:44:58;;;;;;;;;4.00;4.00;;;;;10.38;72.97;100952.59;5031208;28;8829;-61
2022/09/21 07:47:30;;;;;;;;;4.50;4.00;;;;;10.50;73.19;100959.81;5029949;28;9262;-60
2022/09/21 07:49:58;;;;;;;;;5.00;5.00;;;;;10.64;72.78;100959.81;5028338;28;9628;-60
2022/09/21 07:52:25;;;;;;;;;5.50;5.00;;;;;10.80;72.30;100959.66;5029365;28;8845;-61
2022/09/21 07:54:53;;;;;;;;;5.00;3.50;;;;;10.92;71.88;100954.41;5028280;28;8836;-61
2022/09/21 08:00:06;;;;;;;;;6.00;6.00;;;;;11.07;72.19;100949.91;5029150;28;8869;-60
2022/09/21 08:02:34;;;;;;;;;5.50;4.00;;;;;11.07;72.31;100948.06;5030174;28;8845;-61
2022/09/21 08:05:02;;;;;;;;;5.75;5.50;;;;;11.12;72.53;100950.44;5030077;28;8840;-61
2022/09/21 08:07:30;;;;;;;;;3.75;3.00;;;;;11.23;71.91;100948.75;5030138;28;8921;-61
2022/09/21 08:09:59;;;;;;;;;3.75;3.75;;;;;11.38;71.69;100939.75;5030233;28;8852;-61
2022/09/21 08:12:26;;;;;;;;;6.25;6.25;;;;;11.58;71.98;100947.31;5030428;28;9514;-60
2022/09/21 08:14:54;;;;;;;;;0.75;0.75;;;;;11.76;71.07;100934.53;5028640;28;8844;-61
2022/09/21 08:17:23;;;;;;;;;7.00;6.00;;;;;11.94;70.76;100937.63;5027587;28;8828;-61
2022/09/21 08:19:51;;;;;;;;;6.00;5.50;;;;;12.11;70.79;100941.81;5027984;28;8852;-61
2022/09/21 08:22:19;;;;;;;;;4.67;4.00;;;;;12.25;70.47;100939.00;5027362;28;8824;-61
2022/09/21 08:24:47;;;;;;;;;4.00;4.00;;;;;12.41;70.13;100936.97;5027763;28;9002;-60
2022/09/21 08:27:15;;;;;;;;;7.00;6.50;;;;;12.58;69.98;100933.94;5031317;28;8891;-61
2022/09/21 08:29:43;;;;;;;;;6.00;6.00;;;;;12.75;69.88;100937.09;5032096;28;9606;-61
2022/09/21 08:32:11;;;;;;;;;4.00;4.00;;;;;12.90;69.13;100929.78;5031880;28;8868;-61
2022/09/21 08:34:58;;;;;;;;;4.00;3.50;;;;;13.07;69.31;100934.78;5032925;28;8996;-61
2022/09/21 08:37:26;;;;;;;;;3.00;3.00;;;;;13.24;69.27;100931.69;5033138;28;8829;-61
2022/09/21 08:39:53;;;;;;;;;4.00;4.00;;;;;13.42;68.56;100936.53;5032755;28;8885;-61
2022/09/21 08:42:21;;;;;;;;;2.50;2.50;;;;;13.56;68.73;100927.44;5032622;28;8897;-61
2022/09/21 08:44:49;;;;;;;;;6.75;6.00;;;;;13.70;68.50;100929.91;5031650;28;8833;-61
2022/09/21 08:47:18;;;;;;;;;3.75;3.50;;;;;13.85;67.98;100929.59;5031702;28;8833;-61
2022/09/21 08:49:46;;;;;;;;;6.00;5.50;;;;;13.99;68.00;100933.88;5031136;28;8844;-62
2022/09/21 08:52:14;;;;;;;;;6.00;6.00;;;;;14.12;68.21;100935.47;5033079;28;8829;-61
2022/09/21 08:54:43;;;;;;;;;4.00;4.00;;;;;14.25;67.82;100935.38;5033517;28;8851;-61
2022/09/21 08:57:11;;;;;;;;;4.50;3.00;;;;;14.36;67.70;100932.72;5033868;28;8868;-62
2022/09/21 08:59:39;;;;;;;;;5.50;4.00;;;;;14.49;67.29;100936.16;5032183;28;8836;-62
2022/09/21 09:02:06;;;;;;;;;4.00;3.50;;;;;14.59;67.09;100939.78;5032058;28;8833;-61
2022/09/21 09:04:34;;;;;;;;;4.00;4.00;;;;;14.67;67.01;100942.72;5032193;28;8841;-61
2022/09/21 09:07:02;;;;;;;;;6.00;5.50;;;;;14.80;66.80;100940.75;5031950;28;8867;-61
2022/09/21 09:09:30;;;;;;;;;3.25;2.00;;;;;14.97;66.58;100935.72;5032056;28;8848;-61
2022/09/21 09:11:58;;;;;;;;;4.00;4.00;;;;;15.12;67.18;100938.97;5032099;28;8949;-61
2022/09/21 09:14:25;;;;;;;;;4.00;4.00;;;;;15.26;66.73;100947.56;5032052;28;9348;-61
2022/09/21 09:16:53;;;;;;;;;4.00;3.50;;;;;15.37;66.50;100941.34;5032764;28;8833;-61
2022/09/21 09:19:21;;;;;;;;;3.40;3.20;;;;;15.47;66.73;100939.63;5032963;28;8880;-60
2022/09/21 09:21:49;;;;;;;;;4.00;3.50;;;;;15.56;66.45;100944.19;5033108;28;8821;-61
2022/09/21 09:24:16;;;;;;;;;5.60;3.80;;;;;15.63;65.86;100938.16;5032609;28;8832;-62
2022/09/21 09:26:44;;;;;;;;;3.00;3.00;;;;;15.74;66.19;100934.56;5032872;28;8821;-61
2022/09/21 09:29:12;;;;;;;;;2.60;2.60;;;;;15.81;66.14;100936.63;5032508;28;8833;-61
2022/09/21 09:31:40;;;;;;;;;1.00;1.00;;;;;15.87;66.40;100937.94;5031573;28;8852;-61
2022/09/21 09:34:07;;;;;;;;;3.00;3.00;;;;;15.91;66.04;100936.69;5031406;28;8847;-61
2022/09/21 09:36:35;;;;;;;;;3.00;3.00;;;;;15.95;66.38;100938.13;5032416;28;8821;-62
2022/09/21 09:39:23;;;;;;;;;3.00;1.80;;;;;16.00;66.17;100933.22;5032538;28;8845;-62
2022/09/21 09:41:51;;;;;;;;;4.40;4.00;;;;;16.06;66.39;100933.53;5032326;28;8888;-61
2022/09/21 09:44:20;;;;;;;;;3.00;2.60;;;;;16.16;65.95;100923.66;5032949;28;8845;-60
2022/09/21 09:46:48;;;;;;;;;2.60;2.20;;;;;16.30;65.60;100932.25;5032908;28;8848;-62
2022/09/21 09:49:16;;;;;;;;;1.80;1.40;;;;;16.44;65.77;100934.63;5031382;28;8828;-61
2022/09/21 09:51:44;;;;;;;;;1.80;1.00;;;;;16.65;65.33;100934.56;5031705;28;8853;-62
2022/09/21 09:54:12;;;;;;;;;3.40;3.40;;;;;17.06;64.70;100932.53;5031362;28;8844;-61
2022/09/21 09:56:40;;;;;;;;;1.80;1.00;;;;;17.83;62.31;100918.13;5031864;28;8840;-61
2022/09/21 09:59:08;;;;;;;;;1.40;1.40;;;;;18.90;60.61;100926.56;5030818;28;8944;-63
2022/09/21 10:01:35;;;;;;;;;3.00;3.00;;;;;19.99;58.51;100909.91;5031393;28;8855;-62
2022/09/21 10:04:03;;;;;;;;;1.00;1.00;;;;;21.01;56.87;100902.53;5031677;28;8869;-62
2022/09/21 10:06:31;;;;;;;;;3.00;3.00;;;;;21.91;55.92;100913.31;5031674;28;9249;-62
2022/09/21 10:08:59;;;;;;;;;2.40;1.00;;;;;22.56;55.05;100915.81;5030151;28;8825;-61
2022/09/21 10:11:27;;;;;;;;;3.40;2.60;;;;;23.29;53.70;100916.31;5030863;28;8949;-61
2022/09/21 10:13:55;;;;;;;;;1.00;1.00;;;;;24.14;52.85;100911.41;5030824;28;8875;-61
2022/09/21 10:16:22;;;;;;;;;1.00;1.00;;;;;24.85;51.98;100910.75;5029767;28;9636;-62
2022/09/21 10:18:50;;;;;;;;;0.80;0.80;;;;;25.48;51.29;100897.28;5029055;28;8837;-61
2022/09/21 10:21:18;;;;;;;;;1.00;1.00;;;;;25.12;51.70;100916.38;5028593;28;8855;-61
2022/09/21 10:23:46;;;;;;;;;0.00;0.00;;;;;24.05;54.35;100914.38;5029025;28;8864;-61
2022/09/21 10:26:14;;;;;;;;;0.40;0.40;;;;;23.89;55.00;100909.91;5029693;28;8856;-62
2022/09/21 10:28:41;;;;;;;;;0.00;0.00;;;;;24.51;53.90;100913.22;5029576;28;8917;-61
2022/09/21 10:31:09;;;;;;;;;0.00;0.00;;;;;25.38;52.46;100904.94;5029963;28;8833;-62
2022/09/21 10:33:37;;;;;;;;;0.00;0.00;;;;;25.99;51.04;100908.75;5030427;28;8829;-62
2022/09/21 10:36:05;;;;;;;;;0.00;0.00;;;;;26.22;50.10;100903.88;5030495;28;8925;-62
2022/09/21 10:38:35;;;;;;;;;0.40;0.00;;;;;25.79;51.73;100899.47;5030847;28;9246;-62
2022/09/21 10:41:02;;;;;;;;;0.00;0.00;;;;;25.21;53.47;100903.47;5030509;28;8924;-62
2022/09/21 10:43:30;;;;;;;;;1.00;1.00;;;;;24.75;53.93;100908.34;5029807;28;8836;-62
2022/09/21 10:46:02;;;;;;;;;0.00;0.00;;;;;24.12;55.19;100909.88;5029868;28;8984;-62
2022/09/21 10:48:30;;;;;;;;;0.00;0.00;;;;;22.92;57.37;100913.44;5029914;28;8813;-61
2022/09/21 10:50:57;;;;;;;;;0.00;0.00;;;;;21.96;59.25;100914.53;5030880;28;8838;-61
2022/09/21 10:53:27;;;;;;;;;0.00;0.00;;;;;21.38;60.67;100907.53;5028885;28;8921;-61
2022/09/21 10:55:55;;;;;;;;;0.00;0.00;;;;;21.10;60.69;100916.97;5028819;28;8848;-63
2022/09/21 10:58:41;;;;;;;;;0.00;0.00;;;;;21.10;60.25;100908.84;5027335;28;8824;-61
2022/09/21 11:01:09;;;;;;;;;0.00;0.00;;;;;21.04;59.65;100907.63;5027235;28;8855;-61
2022/09/21 11:03:38;;;;;;;;;0.00;0.00;;;;;20.49;60.20;100920.91;5027348;28;8857;-61
2022/09/21 11:06:08;;;;;;;;;0.00;0.00;;;;;19.85;62.05;100923.13;5027892;28;8849;-63
2022/09/21 11:08:35;;;;;;;;;0.00;0.00;;;;;19.33;62.81;100922.19;5028195;28;8835;-61
2022/09/21 11:11:03;;;;;;;;;0.00;0.00;;;;;19.63;61.89;100920.94;5028763;28;8853;-63
2022/09/21 11:13:31;;;;;;;;;0.00;0.00;;;;;20.52;59.81;100905.19;5030667;28;8925;-61
2022/09/21 11:15:59;;;;;;;;;0.00;0.00;;;;;21.39;57.68;100912.78;5030849;28;8855;-62
2022/09/21 11:18:27;;;;;;;;;0.00;0.00;;;;;21.95;57.41;100896.53;5030809;28;8859;-62
2022/09/21 11:20:55;;;;;;;;;0.00;0.00;;;;;22.27;56.49;100898.34;5031149;28;8833;-61
2022/09/21 11:23:22;;;;;;;;;0.00;0.00;;;;;22.69;56.16;100898.94;5030572;28;8920;-61
2022/09/21 11:25:50;;;;;;;;;0.00;0.00;;;;;23.19;54.69;100896.66;5029922;28;8836;-62
2022/09/21 11:28:18;;;;;;;;;0.00;0.00;;;;;23.85;53.45;100892.25;5030160;28;8837;-62
2022/09/21 11:30:46;;;;;;;;;0.80;0.60;;;;;24.67;50.98;100886.66;5028914;28;8860;-61
2022/09/21 11:33:15;;;;;;;;;1.00;1.00;;;;;25.64;49.70;100876.88;5029249;28;9514;-62
2022/09/21 11:35:43;;;;;;;;;0.00;0.00;;;;;26.42;47.75;100882.97;5028941;28;8825;-62
2022/09/21 11:38:11;;;;;;;;;0.00;0.00;;;;;27.03;46.76;100871.09;5029345;28;8857;-61
2022/09/21 11:40:39;;;;;;;;;0.00;0.00;;;;;27.83;45.87;100874.69;5029780;28;9647;-61
2022/09/21 11:43:07;;;;;;;;;0.00;0.00;;;;;28.40;44.60;100876.75;5029524;28;8829;-61
2022/09/21 11:45:34;;;;;;;;;0.00;0.00;;;;;28.74;43.49;100869.06;5028301;28;8821;-61
2022/09/21 11:48:02;;;;;;;;;0.00;0.00;;;;;28.28;44.60;100865.59;5027660;28;8880;-61